< < Back
Terminal Aerodrome Forecast


Current Version              Previous Versions:   1  2  3  4  5  6  7  8  9  

Terminal Aerodrome Forecast

474
FTUS42 KGSP 201100
TAFAND
TAF
KAND 201135Z 2012/2112 04006KT P6SM SCT025
      TEMPO 2012/2014 BKN025
     FM201400 05010G17KT P6SM FEW080
     FM210000 05004KT P6SM FEW250
     FM210600 35003KT P6SM FEW250=



Latest METAR

309
SAUS70 KWBC 210800 RRG
MTRAND
METAR KAND 210756Z AUTO 00000KT 10SM CLR 16/14 A2999 RMK AO2 SLP149
T01610144


USA.gov is the U.S. government's official web portal to all federal, state and local government web resources and services.